Time;durP1;ratioP1;P1;durP2;ratioP2;P2;SDS_P1;SDS_P2;PMS_P1;PMS_P2;Temp;Humidity;BMP_temperature;BMP_pressure;BME280_temperature;BME280_humidity;BME280_pressure;Samples;Min_cycle;Max_cycle;Signal;HPM_P1;HPM_P2
2023/06/23 03:00:37;;;;;;;1.25;1.02;;;29.20;43.30;;;;;;5939150;23;45798;-56
2023/06/23 03:03:05;;;;;;;1.42;1.20;;;29.20;43.30;;;;;;4929052;28;46013;-57
2023/06/23 03:05:31;;;;;;;0.98;0.90;;;29.20;43.30;;;;;;4948489;28;45461;-54
2023/06/23 03:07:56;;;;;;;1.30;1.20;;;29.20;43.20;;;;;;4965730;28;45040;-54
2023/06/23 03:10:22;;;;;;;1.15;1.00;;;29.20;43.20;;;;;;4946773;28;45408;-54
2023/06/23 03:12:48;;;;;;;1.20;1.10;;;29.20;43.30;;;;;;4954997;28;48676;-55
2023/06/23 03:15:13;;;;;;;1.20;1.00;;;29.20;43.30;;;;;;4948673;28;45239;-56
2023/06/23 03:17:40;;;;;;;1.60;1.10;;;29.20;43.30;;;;;;4932886;28;45376;-55
2023/06/23 03:20:09;;;;;;;1.27;1.05;;;29.20;43.30;;;;;;4920911;28;45249;-55
2023/06/23 03:22:37;;;;;;;1.42;0.93;;;29.20;43.30;;;;;;4937065;28;46739;-54
2023/06/23 03:25:05;;;;;;;1.58;1.25;;;29.20;43.30;;;;;;4934624;28;45398;-59
2023/06/23 03:27:31;;;;;;;0.98;0.93;;;29.20;43.30;;;;;;4947908;28;45912;-55
2023/06/23 03:30:03;;;;;;;1.08;0.95;;;29.20;43.30;;;;;;4941016;28;45382;-53
2023/06/23 03:32:31;;;;;;;1.33;1.00;;;29.20;43.30;;;;;;4900043;28;45609;-52
2023/06/23 03:35:01;;;;;;;1.95;1.05;;;29.20;43.30;;;;;;4940062;28;45504;-53
2023/06/23 03:37:27;;;;;;;1.02;0.90;;;29.20;43.40;;;;;;4916180;28;45422;-55
2023/06/23 03:39:55;;;;;;;1.60;1.27;;;29.20;43.30;;;;;;4939448;28;45630;-55
2023/06/23 03:42:21;;;;;;;1.25;1.02;;;29.20;43.30;;;;;;4920727;28;46317;-56
2023/06/23 03:44:47;;;;;;;1.45;1.05;;;29.20;43.30;;;;;;4935235;28;45221;-55
2023/06/23 03:47:18;;;;;;;1.27;1.17;;;29.20;43.30;;;;;;4927899;28;45090;-55
2023/06/23 03:49:56;;;;;;;1.20;1.10;;;29.20;43.30;;;;;;4953613;28;45240;-55
2023/06/23 03:52:22;;;;;;;0.80;0.80;;;29.20;43.30;;;;;;4927222;28;46458;-56
2023/06/23 03:54:48;;;;;;;1.40;1.20;;;29.20;43.30;;;;;;4940785;28;45384;-55
2023/06/23 03:57:17;;;;;;;1.02;0.93;;;29.20;43.40;;;;;;4913659;28;45560;-57
2023/06/23 03:59:42;;;;;;;1.23;1.13;;;29.20;43.30;;;;;;4923063;28;45789;-57
2023/06/23 04:02:08;;;;;;;1.50;1.20;;;29.20;43.30;;;;;;4917526;28;47063;-55
2023/06/23 04:04:34;;;;;;;1.73;1.30;;;29.20;43.40;;;;;;4928738;28;45587;-56
2023/06/23 04:07:00;;;;;;;1.10;1.00;;;29.20;43.40;;;;;;4935946;28;45293;-53
2023/06/23 04:09:25;;;;;;;1.08;1.00;;;29.20;43.40;;;;;;4937262;28;45188;-57
2023/06/23 04:11:51;;;;;;;1.20;1.10;;;29.20;43.40;;;;;;4915197;28;45549;-51
2023/06/23 04:14:16;;;;;;;1.20;1.10;;;29.20;44.10;;;;;;4936150;28;46593;-54
2023/06/23 04:16:42;;;;;;;1.33;1.23;;;29.20;43.50;;;;;;4928871;28;44769;-54
2023/06/23 04:19:11;;;;;;;1.20;1.10;;;29.20;43.50;;;;;;4935727;28;45581;-55
2023/06/23 04:21:37;;;;;;;1.83;1.30;;;29.20;43.50;;;;;;4931304;28;46199;-56
2023/06/23 04:24:03;;;;;;;1.30;1.20;;;29.20;43.50;;;;;;4937469;28;46847;-56
2023/06/23 04:26:29;;;;;;;1.05;0.95;;;29.20;43.50;;;;;;4932290;28;46101;-54
2023/06/23 04:28:54;;;;;;;0.90;0.90;;;29.20;43.50;;;;;;4955063;28;45589;-58
2023/06/23 04:31:20;;;;;;;1.40;1.10;;;29.20;43.50;;;;;;4920659;28;45480;-56
2023/06/23 04:33:45;;;;;;;1.20;1.00;;;29.20;43.60;;;;;;4935822;28;45524;-54
2023/06/23 04:36:13;;;;;;;0.90;0.80;;;29.20;43.60;;;;;;4931644;28;46136;-52
2023/06/23 04:38:42;;;;;;;1.38;1.27;;;29.20;43.60;;;;;;4956337;28;45431;-53
2023/06/23 04:41:08;;;;;;;1.23;1.13;;;29.20;43.60;;;;;;4926152;28;45293;-55
2023/06/23 04:43:37;;;;;;;0.73;0.73;;;29.20;43.60;;;;;;4934821;28;45044;-55
2023/06/23 04:46:07;;;;;;;0.93;0.93;;;29.20;43.60;;;;;;4920463;28;46172;-57
2023/06/23 04:48:37;;;;;;;1.20;1.10;;;29.20;43.60;;;;;;4945426;28;45817;-57
2023/06/23 04:51:05;;;;;;;0.82;0.82;;;29.20;43.60;;;;;;4928725;28;46202;-55
2023/06/23 04:53:32;;;;;;;1.33;1.10;;;29.20;44.20;;;;;;4934938;28;45563;-55
2023/06/23 04:56:00;;;;;;;1.30;1.05;;;29.20;43.60;;;;;;4952209;28;45094;-56
2023/06/23 04:58:25;;;;;;;1.20;1.10;;;29.20;43.60;;;;;;4936928;28;45748;-56
2023/06/23 05:00:51;;;;;;;0.90;0.90;;;29.20;43.60;;;;;;4919040;28;45763;-58
2023/06/23 05:03:17;;;;;;;1.10;0.75;;;29.20;43.70;;;;;;4921258;28;45864;-62
2023/06/23 05:05:42;;;;;;;1.88;1.17;;;29.20;43.60;;;;;;4906691;28;45551;-54
2023/06/23 05:08:08;;;;;;;1.00;0.80;;;29.20;43.60;;;;;;4929578;28;45591;-52
2023/06/23 05:10:34;;;;;;;0.90;0.90;;;29.20;43.60;;;;;;4926833;28;45881;-56
2023/06/23 05:13:00;;;;;;;0.80;0.80;;;29.30;43.60;;;;;;4928340;28;45371;-56
2023/06/23 05:15:25;;;;;;;1.10;1.00;;;29.20;43.50;;;;;;4925059;28;45277;-55
2023/06/23 05:17:53;;;;;;;1.13;1.05;;;29.20;43.50;;;;;;4929467;28;45259;-56
2023/06/23 05:20:20;;;;;;;1.10;1.00;;;29.30;43.60;;;;;;4941671;28;46328;-58
2023/06/23 05:22:47;;;;;;;1.13;1.02;;;29.30;43.60;;;;;;4929684;28;44999;-55
2023/06/23 05:25:12;;;;;;;1.05;0.88;;;29.30;43.60;;;;;;4899005;28;45061;-57
2023/06/23 05:27:38;;;;;;;1.00;0.90;;;29.20;43.60;;;;;;4925522;28;45307;-54
2023/06/23 05:30:04;;;;;;;1.20;1.10;;;29.20;43.70;;;;;;4912647;28;46054;-60
2023/06/23 05:32:31;;;;;;;0.70;0.70;;;29.20;43.70;;;;;;4907857;28;45186;-55
2023/06/23 05:34:59;;;;;;;0.88;0.85;;;29.20;43.70;;;;;;4932639;28;45414;-55
2023/06/23 05:37:25;;;;;;;1.00;0.80;;;29.20;43.70;;;;;;4910761;28;45498;-54
2023/06/23 05:39:50;;;;;;;1.15;1.00;;;29.20;43.70;;;;;;4930185;28;45081;-55
2023/06/23 05:42:16;;;;;;;1.58;1.35;;;29.20;43.70;;;;;;4939698;28;46711;-55
2023/06/23 05:44:41;;;;;;;3.45;1.88;;;29.20;43.70;;;;;;4932152;28;45211;-54
2023/06/23 05:47:09;;;;;;;2.45;1.67;;;29.20;43.30;;;;;;4922899;28;45875;-54
2023/06/23 05:49:37;;;;;;;2.40;2.20;;;29.00;43.20;;;;;;4932182;28;45515;-55
2023/06/23 05:52:03;;;;;;;3.38;2.65;;;28.60;43.20;;;;;;4917391;28;45241;-56
2023/06/23 05:54:29;;;;;;;3.15;2.65;;;28.30;43.40;;;;;;4953645;28;45417;-55
2023/06/23 05:57:00;;;;;;;3.67;2.70;;;28.10;44.30;;;;;;4929617;28;45544;-54
2023/06/23 05:59:28;;;;;;;3.28;2.30;;;27.90;43.90;;;;;;4935717;28;45980;-56
2023/06/23 06:01:57;;;;;;;3.03;2.55;;;27.90;43.80;;;;;;4923213;28;45265;-53
2023/06/23 06:04:25;;;;;;;2.92;2.50;;;28.00;43.70;;;;;;4933240;28;45427;-54
2023/06/23 06:06:50;;;;;;;2.72;2.47;;;28.00;43.50;;;;;;4928869;28;45246;-56
2023/06/23 06:09:16;;;;;;;4.03;2.63;;;28.00;43.40;;;;;;4919543;28;45267;-57
2023/06/23 06:11:42;;;;;;;2.65;2.45;;;27.90;43.30;;;;;;4928010;28;45472;-56
2023/06/23 06:14:08;;;;;;;3.85;2.58;;;27.90;43.30;;;;;;4951868;28;45355;-55
2023/06/23 06:16:34;;;;;;;2.63;2.42;;;27.90;43.40;;;;;;4927008;28;45269;-56
2023/06/23 06:18:59;;;;;;;3.88;2.40;;;27.80;43.40;;;;;;4918159;28;46466;-57
2023/06/23 06:21:25;;;;;;;3.05;2.63;;;27.80;43.50;;;;;;4943086;28;45092;-55
2023/06/23 06:23:51;;;;;;;3.50;2.78;;;27.70;43.50;;;;;;4932628;28;45323;-56
2023/06/23 06:26:17;;;;;;;3.55;2.35;;;27.60;43.60;;;;;;4916583;28;45401;-55
2023/06/23 06:28:43;;;;;;;2.97;2.60;;;27.60;43.80;;;;;;4931038;28;45814;-57
2023/06/23 06:31:09;;;;;;;4.00;2.67;;;27.60;43.80;;;;;;4925533;28;45431;-53
2023/06/23 06:33:35;;;;;;;5.50;2.60;;;27.60;43.80;;;;;;4934252;28;45547;-56
2023/06/23 06:36:04;;;;;;;3.40;2.63;;;27.60;43.70;;;;;;4924479;28;46116;-56
2023/06/23 06:38:34;;;;;;;4.57;2.63;;;27.50;43.70;;;;;;4932509;28;45508;-55
2023/06/23 06:41:01;;;;;;;3.25;2.35;;;27.50;43.80;;;;;;4930453;28;45351;-56
2023/06/23 06:43:27;;;;;;;4.05;2.22;;;27.40;43.80;;;;;;4929989;28;45472;-57
2023/06/23 06:45:52;;;;;;;3.60;2.33;;;27.40;43.80;;;;;;4918056;28;45347;-57
2023/06/23 06:48:19;;;;;;;2.83;2.20;;;27.40;43.80;;;;;;4915483;28;46260;-56
2023/06/23 06:50:44;;;;;;;2.35;2.15;;;27.30;43.90;;;;;;4913196;28;45177;-56
2023/06/23 06:53:10;;;;;;;2.47;2.28;;;27.30;43.80;;;;;;4933258;28;45372;-57
2023/06/23 06:55:36;;;;;;;2.60;1.92;;;27.20;43.70;;;;;;4940874;28;45659;-57
2023/06/23 06:58:01;;;;;;;2.28;2.08;;;27.20;43.70;;;;;;4913359;28;46778;-58
2023/06/23 07:00:28;;;;;;;3.13;2.22;;;27.10;43.70;;;;;;4940558;28;45575;-63
2023/06/23 07:02:54;;;;;;;2.63;2.25;;;27.20;43.70;;;;;;4920149;28;45463;-57
2023/06/23 07:05:20;;;;;;;2.58;1.80;;;27.10;43.60;;;;;;4915263;28;45015;-58
2023/06/23 07:07:45;;;;;;;4.00;2.17;;;27.10;43.80;;;;;;4929357;28;47482;-58
2023/06/23 07:10:11;;;;;;;2.05;1.75;;;27.00;43.70;;;;;;4924948;28;45573;-59
2023/06/23 07:12:37;;;;;;;4.20;1.90;;;27.00;43.80;;;;;;4914163;28;45441;-58
2023/06/23 07:15:03;;;;;;;2.75;2.17;;;27.00;43.90;;;;;;4936014;28;46166;-60
2023/06/23 07:17:29;;;;;;;2.08;1.70;;;27.00;43.90;;;;;;4916208;28;46744;-58
2023/06/23 07:19:54;;;;;;;2.78;2.10;;;26.90;43.90;;;;;;4932669;28;45658;-57
2023/06/23 07:22:20;;;;;;;3.33;2.13;;;26.90;44.00;;;;;;4934622;28;45260;-57
2023/06/23 07:24:46;;;;;;;3.85;2.13;;;26.90;44.20;;;;;;4915936;28;45490;-57
2023/06/23 07:27:14;;;;;;;2.25;2.05;;;26.90;44.20;;;;;;4924298;28;45281;-57
2023/06/23 07:29:40;;;;;;;2.78;2.10;;;26.80;44.30;;;;;;4938538;28;45560;-56
2023/06/23 07:32:06;;;;;;;2.60;1.63;;;26.90;44.40;;;;;;4927034;28;45575;-57
2023/06/23 07:34:32;;;;;;;3.95;2.13;;;26.90;44.50;;;;;;4930262;28;45356;-60
2023/06/23 07:36:58;;;;;;;3.05;2.00;;;26.80;44.50;;;;;;4930208;28;46502;-58
2023/06/23 07:39:23;;;;;;;3.08;2.55;;;26.80;44.50;;;;;;4943250;28;45648;-56
2023/06/23 07:41:49;;;;;;;2.45;2.10;;;26.80;44.50;;;;;;4945206;28;44948;-55
2023/06/23 07:44:15;;;;;;;2.38;1.85;;;26.70;44.70;;;;;;4938055;28;45393;-57
2023/06/23 07:46:40;;;;;;;6.03;2.03;;;26.80;44.90;;;;;;4946737;28;45915;-55
2023/06/23 07:49:06;;;;;;;3.35;2.15;;;26.70;45.00;;;;;;4952896;28;46004;-57
2023/06/23 07:51:32;;;;;;;3.30;1.83;;;26.70;45.10;;;;;;4934132;28;45315;-57
2023/06/23 07:53:57;;;;;;;3.05;2.38;;;26.70;45.20;;;;;;4955374;28;45981;-57
2023/06/23 07:56:23;;;;;;;2.65;2.10;;;26.60;45.20;;;;;;4952560;28;46258;-56
2023/06/23 07:58:48;;;;;;;2.08;1.85;;;26.70;45.50;;;;;;4958230;28;45131;-57
2023/06/23 08:01:14;;;;;;;2.25;2.00;;;26.60;45.70;;;;;;4945367;28;45340;-55
2023/06/23 08:03:45;;;;;;;4.95;2.33;;;26.60;45.80;;;;;;4952537;28;45312;-56
2023/06/23 08:06:10;;;;;;;2.38;1.88;;;26.60;45.80;;;;;;4916713;28;46552;-56
2023/06/23 08:08:36;;;;;;;2.20;2.00;;;26.60;45.60;;;;;;4953497;28;45210;-57
2023/06/23 08:11:01;;;;;;;4.00;2.17;;;26.50;45.60;;;;;;4952595;28;45352;-57
2023/06/23 08:13:27;;;;;;;2.22;1.67;;;26.60;45.60;;;;;;4957640;28;45351;-57
2023/06/23 08:15:52;;;;;;;3.72;1.80;;;26.50;45.70;;;;;;4927737;28;45863;-56
2023/06/23 08:18:18;;;;;;;1.70;1.60;;;26.60;45.70;;;;;;4936420;28;45323;-57
2023/06/23 08:20:43;;;;;;;2.08;1.85;;;26.60;45.70;;;;;;4933952;28;44921;-54
2023/06/23 08:23:09;;;;;;;4.25;2.15;;;26.50;45.70;;;;;;4957037;28;45587;-56
2023/06/23 08:25:34;;;;;;;2.17;1.98;;;26.50;45.70;;;;;;4952821;28;46199;-57
2023/06/23 08:28:00;;;;;;;2.45;1.70;;;26.50;45.70;;;;;;4950377;28;44987;-56
2023/06/23 08:30:27;;;;;;;1.73;1.63;;;26.40;45.60;;;;;;4929475;28;45734;-58
2023/06/23 08:32:53;;;;;;;4.32;1.77;;;26.40;45.60;;;;;;4936577;28;46118;-57
2023/06/23 08:35:18;;;;;;;1.80;1.60;;;26.40;45.60;;;;;;4951846;28;46078;-57
2023/06/23 08:37:44;;;;;;;3.55;2.00;;;26.40;45.50;;;;;;4954882;28;45290;-54
2023/06/23 08:40:10;;;;;;;1.98;1.73;;;26.30;45.50;;;;;;4950620;28;44698;-57
2023/06/23 08:42:35;;;;;;;2.40;1.90;;;26.30;45.60;;;;;;4952304;28;45320;-56
2023/06/23 08:45:05;;;;;;;3.40;1.90;;;26.20;45.60;;;;;;4936192;28;45940;-57
2023/06/23 08:47:31;;;;;;;2.25;1.77;;;26.20;45.70;;;;;;4949303;28;45395;-58
2023/06/23 08:49:56;;;;;;;2.40;2.20;;;26.20;45.70;;;;;;4934842;28;45268;-58
2023/06/23 08:52:23;;;;;;;2.42;1.73;;;26.20;45.80;;;;;;4932142;28;45587;-58
2023/06/23 08:54:49;;;;;;;1.70;1.60;;;26.10;45.70;;;;;;4960014;28;45463;-58
2023/06/23 08:57:14;;;;;;;3.05;2.03;;;26.10;45.80;;;;;;4928440;28;45015;-58
2023/06/23 08:59:40;;;;;;;2.10;1.63;;;26.10;45.90;;;;;;4933110;28;45117;-57
2023/06/23 09:02:06;;;;;;;2.25;1.85;;;26.20;45.80;;;;;;4946080;28;46112;-57
2023/06/23 09:04:31;;;;;;;2.70;1.90;;;26.10;45.80;;;;;;4955749;28;45886;-56
2023/06/23 09:06:58;;;;;;;2.80;2.00;;;26.10;45.70;;;;;;4948000;28;45031;-58
2023/06/23 09:09:25;;;;;;;2.75;2.00;;;26.10;45.70;;;;;;4932011;28;45316;-57
2023/06/23 09:11:51;;;;;;;2.58;1.77;;;26.00;45.70;;;;;;4931754;28;44832;-56
2023/06/23 09:14:17;;;;;;;2.58;1.92;;;26.00;45.70;;;;;;4935810;28;45329;-56
2023/06/23 09:16:43;;;;;;;2.80;2.08;;;26.00;45.70;;;;;;4925522;28;45663;-56
2023/06/23 09:19:08;;;;;;;3.63;1.98;;;26.00;45.70;;;;;;4932857;28;45587;-56
2023/06/23 09:21:35;;;;;;;2.55;2.00;;;26.00;45.70;;;;;;4936177;28;44655;-54
2023/06/23 09:24:03;;;;;;;3.38;1.90;;;26.00;45.70;;;;;;4944735;28;46229;-53
2023/06/23 09:26:45;;;;;;;2.28;1.85;;;25.90;45.60;;;;;;4936115;28;45562;-57
2023/06/23 09:29:17;;;;;;;2.72;2.05;;;26.00;45.70;;;;;;4952354;28;45562;-55
2023/06/23 09:31:43;;;;;;;5.72;2.38;;;25.90;45.60;;;;;;4948572;28;45750;-57
2023/06/23 09:34:08;;;;;;;2.95;2.05;;;25.90;45.60;;;;;;4958226;28;45864;-57
2023/06/23 09:36:35;;;;;;;2.42;2.15;;;25.90;45.60;;;;;;4954350;28;44741;-57
2023/06/23 09:39:01;;;;;;;1.80;1.67;;;25.90;45.60;;;;;;4936613;28;45252;-54
2023/06/23 09:41:31;;;;;;;2.25;2.00;;;25.90;45.60;;;;;;4952623;28;45244;-56
2023/06/23 09:43:57;;;;;;;2.10;1.75;;;25.80;45.60;;;;;;4937960;28;45637;-57
2023/06/23 09:46:22;;;;;;;3.22;1.92;;;25.80;45.50;;;;;;4947295;28;44662;-57
2023/06/23 09:48:49;;;;;;;3.38;1.80;;;25.80;45.60;;;;;;4955133;28;45343;-57
2023/06/23 09:51:15;;;;;;;2.47;2.00;;;25.80;45.60;;;;;;4955481;28;45252;-58
2023/06/23 09:53:41;;;;;;;2.33;2.13;;;25.80;45.60;;;;;;4956503;28;45950;-57
2023/06/23 09:56:28;;;;;;;5.15;2.13;;;25.80;45.50;;;;;;4953385;28;44985;-57
2023/06/23 09:58:53;;;;;;;2.33;1.67;;;25.80;45.50;;;;;;4939645;28;45028;-57
2023/06/23 10:01:19;;;;;;;2.97;2.33;;;25.70;45.40;;;;;;4933130;28;45232;-57
2023/06/23 10:03:46;;;;;;;3.00;2.20;;;25.70;45.40;;;;;;4954906;28;45987;-57
2023/06/23 10:06:36;;;;;;;2.95;1.83;;;25.70;45.30;;;;;;4953048;28;45116;-55
2023/06/23 10:09:09;;;;;;;4.30;1.70;;;25.70;45.40;;;;;;4952487;28;45300;-56
2023/06/23 10:11:36;;;;;;;;;;;25.60;45.40;;;;;;4930948;28;45376;-56
2023/06/23 10:14:06;;;;;;;5.35;2.00;;;25.50;45.70;;;;;;4937326;28;46026;-56
2023/06/23 10:16:33;;;;;;;2.88;1.88;;;25.50;45.60;;;;;;4928614;28;45590;-57
2023/06/23 10:18:58;;;;;;;3.90;1.65;;;25.40;45.60;;;;;;4955730;28;45395;-55
2023/06/23 10:21:24;;;;;;;3.10;2.05;;;25.40;45.70;;;;;;4955983;28;45415;-56
2023/06/23 10:23:51;;;;;;;3.03;1.75;;;25.40;45.80;;;;;;4939931;28;46249;-55
2023/06/23 10:26:17;;;;;;;2.13;1.90;;;25.40;45.80;;;;;;4955429;28;45518;-56
2023/06/23 10:28:43;;;;;;;3.25;2.10;;;25.30;46.00;;;;;;4958778;28;44981;-56
2023/06/23 10:31:09;;;;;;;3.05;1.95;;;25.30;46.10;;;;;;4918530;28;45736;-56
2023/06/23 10:33:36;;;;;;;2.30;2.00;;;25.30;46.10;;;;;;4956080;28;46423;-56
2023/06/23 10:36:02;;;;;;;2.20;2.00;;;25.30;46.20;;;;;;4929245;28;45109;-56
2023/06/23 10:38:27;;;;;;;3.95;2.13;;;25.20;46.40;;;;;;4950817;28;45356;-56
2023/06/23 10:40:54;;;;;;;2.70;2.20;;;25.20;46.50;;;;;;4916995;28;45558;-57
2023/06/23 10:43:20;;;;;;;2.08;1.88;;;25.20;46.50;;;;;;4924483;28;45559;-57
2023/06/23 10:45:46;;;;;;;2.28;1.98;;;25.10;46.50;;;;;;4928469;28;45260;-57
2023/06/23 10:48:12;;;;;;;2.85;2.10;;;25.10;47.10;;;;;;4926858;28;45499;-56
2023/06/23 10:50:39;;;;;;;3.83;2.33;;;25.20;46.50;;;;;;4914553;28;46368;-57
2023/06/23 10:53:16;;;;;;;5.97;2.38;;;25.10;46.50;;;;;;4939747;28;45533;-56
2023/06/23 10:55:46;;;;;;;5.25;2.30;;;25.10;46.50;;;;;;4930013;28;45342;-56
2023/06/23 10:58:18;;;;;;;5.43;2.30;;;25.10;46.50;;;;;;4930845;28;45281;-56
2023/06/23 11:00:55;;;;;;;2.92;2.63;;;25.10;46.50;;;;;;4939823;28;46308;-56
2023/06/23 11:03:38;;;;;;;3.45;2.53;;;25.00;46.50;;;;;;4944347;28;46031;-55
2023/06/23 11:06:05;;;;;;;3.90;2.33;;;25.00;46.90;;;;;;4944620;28;45406;-55
2023/06/23 11:08:32;;;;;;;3.33;2.83;;;24.90;46.70;;;;;;4950004;28;45701;-56
2023/06/23 11:11:02;;;;;;;6.07;2.55;;;25.00;46.60;;;;;;4944885;28;45668;-56
2023/06/23 11:13:49;;;;;;;5.03;2.53;;;25.00;46.70;;;;;;4944638;28;45225;-56
2023/06/23 11:16:16;;;;;;;6.00;3.00;;;25.00;46.90;;;;;;4944599;28;46069;-61
2023/06/23 11:19:02;;;;;;;3.88;2.55;;;25.00;46.70;;;;;;4951827;28;44888;-57
2023/06/23 11:21:34;;;;;;;3.88;2.63;;;25.00;47.00;;;;;;4940174;28;45728;-54
2023/06/23 11:24:10;;;;;;;3.40;2.57;;;25.00;46.70;;;;;;4935262;28;46411;-57
2023/06/23 11:26:36;;;;;;;4.90;2.28;;;25.00;46.90;;;;;;4947941;28;45367;-56
2023/06/23 11:29:08;;;;;;;2.95;2.60;;;25.00;46.80;;;;;;4953394;28;45291;-57
2023/06/23 11:31:34;;;;;;;2.83;2.35;;;24.90;46.80;;;;;;4924614;28;45364;-56
2023/06/23 11:34:01;;;;;;;3.25;2.53;;;24.90;46.70;;;;;;4932699;28;46639;-54
2023/06/23 11:36:27;;;;;;;2.63;2.40;;;24.90;46.70;;;;;;4947763;28;45209;-57
2023/06/23 11:38:55;;;;;;;3.60;2.20;;;24.90;46.70;;;;;;4949116;28;45241;-57
2023/06/23 11:41:29;;;;;;;5.05;2.70;;;24.80;46.70;;;;;;4931676;28;44769;-57
2023/06/23 11:44:02;;;;;;;5.45;2.30;;;24.80;46.70;;;;;;4952068;28;46159;-56
2023/06/23 11:46:30;;;;;;;4.82;2.72;;;24.90;46.60;;;;;;4925637;28;45668;-55
2023/06/23 11:48:56;;;;;;;3.45;2.88;;;24.80;46.60;;;;;;4930147;28;44984;-55
2023/06/23 11:51:21;;;;;;;3.80;2.65;;;24.80;46.70;;;;;;4931280;28;45749;-58
2023/06/23 11:53:49;;;;;;;5.15;2.80;;;24.80;46.70;;;;;;4935272;28;46175;-57
2023/06/23 11:56:16;;;;;;;4.40;2.38;;;24.80;46.70;;;;;;4947784;28;45244;-57
2023/06/23 11:58:50;;;;;;;3.30;2.33;;;24.80;46.80;;;;;;4938175;28;45041;-58
2023/06/23 12:01:17;;;;;;;2.13;1.70;;;24.70;46.80;;;;;;4908299;28;45579;-59
2023/06/23 12:03:50;;;;;;;3.90;1.90;;;24.70;46.80;;;;;;4951710;28;45221;-58
2023/06/23 12:06:17;;;;;;;2.28;1.95;;;24.80;46.90;;;;;;4942624;28;45372;-56
2023/06/23 12:08:49;;;;;;;2.58;1.95;;;24.70;46.80;;;;;;4935075;28;45736;-56
2023/06/23 12:11:19;;;;;;;2.38;1.80;;;24.70;46.80;;;;;;4939772;28;45307;-57
2023/06/23 12:13:45;;;;;;;4.30;2.25;;;24.70;46.90;;;;;;4951212;28;46342;-55
2023/06/23 12:16:11;;;;;;;2.33;1.80;;;24.60;46.90;;;;;;4945458;28;45263;-57
2023/06/23 12:18:50;;;;;;;3.13;2.25;;;24.70;47.00;;;;;;4930992;28;45347;-57
2023/06/23 12:21:20;;;;;;;2.38;2.10;;;24.60;47.20;;;;;;4938097;28;45686;-55
2023/06/23 12:23:45;;;;;;;1.98;1.75;;;24.60;47.10;;;;;;4934650;28;46092;-57
2023/06/23 12:26:12;;;;;;;2.10;1.80;;;24.60;46.90;;;;;;4927784;28;45202;-56
2023/06/23 12:28:37;;;;;;;1.77;1.48;;;24.60;46.90;;;;;;4952482;28;45610;-59
2023/06/23 12:31:07;;;;;;;4.13;1.90;;;24.60;47.00;;;;;;4937584;28;46176;-58
2023/06/23 12:33:33;;;;;;;2.45;1.50;;;24.50;47.00;;;;;;4949320;28;46033;-58
2023/06/23 12:36:28;;;;;;;2.03;1.30;;;24.50;47.00;;;;;;4949632;28;45554;-58
2023/06/23 12:38:55;;;;;;;1.65;1.50;;;24.50;47.30;;;;;;4935514;28;44887;-55
2023/06/23 12:41:25;;;;;;;2.40;1.42;;;24.40;47.20;;;;;;4924955;28;44799;-57
2023/06/23 12:43:55;;;;;;;2.20;1.67;;;24.40;47.40;;;;;;4935279;28;45340;-60
2023/06/23 12:46:23;;;;;;;3.63;1.80;;;24.40;47.50;;;;;;4942044;28;46012;-57
2023/06/23 12:48:49;;;;;;;1.67;1.50;;;24.40;47.60;;;;;;4936719;28;45344;-58
2023/06/23 12:51:14;;;;;;;3.10;1.70;;;24.40;47.70;;;;;;4927565;28;45283;-58
2023/06/23 12:53:40;;;;;;;2.20;1.70;;;24.40;47.90;;;;;;4943668;28;47179;-58
2023/06/23 12:56:05;;;;;;;;;;;24.30;47.90;;;;;;4949929;28;45161;-58
2023/06/23 12:58:31;;;;;;;1.42;1.17;;;24.20;48.60;;;;;;4955801;28;45282;-58
2023/06/23 13:00:57;;;;;;;2.17;1.20;;;24.10;48.10;;;;;;4939167;28;45627;-57
2023/06/23 13:03:22;;;;;;;2.08;1.48;;;24.10;48.30;;;;;;4943844;28;45960;-60
2023/06/23 13:05:48;;;;;;;2.00;1.30;;;24.10;48.30;;;;;;4945273;28;44907;-55
2023/06/23 13:08:13;;;;;;;5.10;1.70;;;24.10;48.30;;;;;;4956020;28;44762;-57
2023/06/23 13:10:40;;;;;;;3.15;1.27;;;24.10;48.30;;;;;;4933323;28;45345;-55
2023/06/23 13:13:06;;;;;;;2.55;1.70;;;24.10;48.30;;;;;;4937708;28;46624;-58
2023/06/23 13:15:33;;;;;;;3.15;1.52;;;24.10;48.30;;;;;;4939263;28;45352;-58
2023/06/23 13:17:59;;;;;;;3.55;1.38;;;24.00;48.20;;;;;;4952717;28;45635;-58
2023/06/23 13:20:24;;;;;;;1.20;1.10;;;24.00;48.20;;;;;;4951139;28;45320;-58
2023/06/23 13:22:50;;;;;;;2.55;1.20;;;24.00;48.30;;;;;;4952206;28;46960;-57
2023/06/23 13:25:16;;;;;;;2.90;1.33;;;24.00;48.20;;;;;;4939305;28;45332;-58
2023/06/23 13:27:41;;;;;;;2.75;1.20;;;24.00;48.30;;;;;;4954103;28;45887;-56
2023/06/23 13:30:07;;;;;;;3.90;1.30;;;24.00;48.20;;;;;;4947253;28;45540;-58
2023/06/23 13:32:33;;;;;;;1.48;1.05;;;23.90;48.30;;;;;;4930108;28;46186;-57
2023/06/23 13:34:58;;;;;;;1.88;1.20;;;23.90;48.40;;;;;;4953275;28;45204;-54
2023/06/23 13:37:24;;;;;;;1.08;0.95;;;23.80;48.40;;;;;;4943197;28;45530;-59
2023/06/23 13:39:50;;;;;;;1.77;1.30;;;23.90;48.40;;;;;;4950463;28;45596;-56
2023/06/23 13:42:15;;;;;;;1.55;1.27;;;23.90;48.30;;;;;;4953866;28;47078;-60
2023/06/23 13:44:41;;;;;;;2.08;1.05;;;23.90;48.30;;;;;;4952711;28;45346;-57
2023/06/23 13:47:06;;;;;;;1.20;1.10;;;23.90;48.40;;;;;;4934844;28;44903;-58
2023/06/23 13:49:32;;;;;;;2.28;1.10;;;23.80;48.40;;;;;;4945969;28;45600;-59
2023/06/23 13:51:57;;;;;;;2.33;1.10;;;23.80;48.40;;;;;;4948415;28;47224;-57
2023/06/23 13:54:23;;;;;;;1.55;0.93;;;23.90;48.40;;;;;;4956923;28;45236;-55
2023/06/23 13:56:49;;;;;;;1.33;1.02;;;23.90;48.40;;;;;;4951050;28;45208;-57
2023/06/23 13:59:14;;;;;;;1.85;1.20;;;23.90;48.40;;;;;;4947612;28;44734;-58
2023/06/23 14:01:40;;;;;;;1.70;1.20;;;23.90;48.40;;;;;;4901942;28;1138210;-57
2023/06/23 14:04:05;;;;;;;1.95;1.33;;;23.80;48.30;;;;;;4959413;28;45619;-57
2023/06/23 14:06:31;;;;;;;2.35;1.30;;;23.80;48.30;;;;;;4949810;28;45819;-59
2023/06/23 14:08:57;;;;;;;1.42;1.10;;;23.80;48.20;;;;;;4949850;28;45314;-59
2023/06/23 14:11:23;;;;;;;1.38;1.10;;;23.80;48.30;;;;;;4929455;28;45474;-57
2023/06/23 14:13:48;;;;;;;1.30;1.20;;;23.80;48.30;;;;;;4956480;28;45616;-57
2023/06/23 14:16:16;;;;;;;1.55;1.08;;;23.80;48.20;;;;;;4944548;28;45278;-57
2023/06/23 14:18:42;;;;;;;2.42;1.35;;;23.80;48.20;;;;;;4947638;28;44780;-58
2023/06/23 14:21:08;;;;;;;1.75;1.20;;;23.70;48.20;;;;;;4908875;28;46152;-58
2023/06/23 14:23:33;;;;;;;1.15;1.05;;;23.80;48.20;;;;;;4949812;28;46400;-57
2023/06/23 14:25:59;;;;;;;2.72;1.10;;;23.80;48.10;;;;;;4944532;28;46019;-55
2023/06/23 14:28:26;;;;;;;3.00;1.50;;;23.80;48.10;;;;;;4949898;28;44724;-58
2023/06/23 14:30:52;;;;;;;2.38;1.63;;;23.80;48.10;;;;;;4937903;28;46181;-60
2023/06/23 14:33:18;;;;;;;1.65;1.20;;;23.80;48.10;;;;;;4929120;28;44732;-57
2023/06/23 14:35:43;;;;;;;1.88;1.33;;;23.70;48.10;;;;;;4948525;28;45223;-57
2023/06/23 14:38:09;;;;;;;2.85;1.38;;;23.70;48.10;;;;;;4935464;28;45572;-56
2023/06/23 14:40:35;;;;;;;1.23;1.08;;;23.70;48.20;;;;;;4944200;28;46068;-55
2023/06/23 14:43:01;;;;;;;1.67;1.33;;;23.80;48.20;;;;;;4944028;28;45984;-58
2023/06/23 14:45:35;;;;;;;2.22;1.30;;;23.80;48.20;;;;;;4929123;28;45434;-56
2023/06/23 14:48:00;;;;;;;2.60;1.60;;;23.80;48.20;;;;;;4947597;28;45451;-56
2023/06/23 14:50:26;;;;;;;2.30;1.70;;;23.70;48.30;;;;;;4942568;28;46104;-57
2023/06/23 14:52:54;;;;;;;3.95;1.80;;;23.70;48.30;;;;;;4941452;28;45583;-59
2023/06/23 14:55:20;;;;;;;3.65;1.67;;;23.70;48.30;;;;;;4931017;28;45430;-59
2023/06/23 14:57:45;;;;;;;3.75;1.40;;;23.70;48.30;;;;;;4953216;28;45087;-56
2023/06/23 15:00:12;;;;;;;2.72;1.80;;;23.70;48.40;;;;;;4946004;28;46935;-57
2023/06/23 15:02:38;;;;;;;2.00;1.38;;;23.70;48.40;;;;;;4932427;28;45169;-53
2023/06/23 15:05:04;;;;;;;4.68;2.05;;;23.70;48.50;;;;;;4942399;28;46504;-63
2023/06/23 15:07:30;;;;;;;2.72;1.73;;;23.70;48.50;;;;;;4930008;28;45848;-60
2023/06/23 15:09:55;;;;;;;2.80;1.90;;;23.70;48.70;;;;;;4921037;28;45532;-57
2023/06/23 15:12:21;;;;;;;2.90;1.70;;;23.70;48.90;;;;;;4943099;28;45610;-57
2023/06/23 15:14:46;;;;;;;3.42;1.70;;;23.70;49.10;;;;;;4944484;28;45823;-57
2023/06/23 15:17:12;;;;;;;4.85;1.90;;;23.70;49.20;;;;;;4955021;28;44925;-58
2023/06/23 15:19:37;;;;;;;3.17;1.60;;;23.70;49.30;;;;;;4920221;28;45836;-57
2023/06/23 15:22:06;;;;;;;2.30;1.63;;;23.70;49.90;;;;;;4915521;28;46002;-58
2023/06/23 15:24:31;;;;;;;2.42;1.63;;;23.70;49.30;;;;;;4935233;28;45280;-57
2023/06/23 15:26:57;;;;;;;2.67;1.60;;;23.70;49.30;;;;;;4917820;28;45405;-58
2023/06/23 15:29:22;;;;;;;2.25;1.77;;;23.70;49.30;;;;;;4933442;28;46883;-58
2023/06/23 15:31:48;;;;;;;2.60;1.77;;;23.70;49.20;;;;;;4933359;28;46094;-58
2023/06/23 15:34:13;;;;;;;2.72;2.03;;;23.70;49.10;;;;;;4931136;28;45310;-58
2023/06/23 15:36:39;;;;;;;1.92;1.50;;;23.70;49.10;;;;;;4943965;28;45600;-58
2023/06/23 15:39:04;;;;;;;2.67;1.60;;;23.70;49.20;;;;;;4932458;28;45227;-59
2023/06/23 15:41:30;;;;;;;2.75;1.60;;;23.70;49.80;;;;;;4938952;28;45633;-58
2023/06/23 15:43:56;;;;;;;3.95;1.63;;;23.70;49.20;;;;;;4950894;28;45276;-54
2023/06/23 15:46:21;;;;;;;4.40;1.58;;;23.70;49.10;;;;;;4936308;28;44685;-60